Time;durP1;ratioP1;P1;durP2;ratioP2;P2;SDS_P1;SDS_P2;PMS_P1;PMS_P2;Temp;Humidity;BMP_temperature;BMP_pressure;BME280_temperature;BME280_humidity;BME280_pressure;Samples;Min_cycle;Max_cycle;Signal;HPM_P1;HPM_P2
2021/04/13 00:02:22;;;;;;;10.60;2.83;;;1.10;91.90;;;;;;5070034;28;20040;-83
2021/04/13 00:04:51;;;;;;;9.93;2.55;;;1.00;91.80;;;;;;5069598;28;20029;-83
2021/04/13 00:07:18;;;;;;;10.98;2.40;;;1.10;91.90;;;;;;5066655;28;20558;-81
2021/04/13 00:09:46;;;;;;;9.35;2.20;;;1.10;92.00;;;;;;5045655;28;20048;-83
2021/04/13 00:12:16;;;;;;;8.15;1.85;;;1.20;92.10;;;;;;5062368;28;20029;-82
2021/04/13 00:14:50;;;;;;;12.13;2.33;;;1.20;92.10;;;;;;5069742;28;20036;-83
2021/04/13 00:17:22;;;;;;;8.20;2.00;;;1.20;92.10;;;;;;5079047;28;20036;-83
2021/04/13 00:19:59;;;;;;;7.18;1.65;;;1.20;92.40;;;;;;5085892;28;20050;-81
2021/04/13 00:22:26;;;;;;;10.60;2.10;;;1.20;92.10;;;;;;5076079;28;20693;-81
2021/04/13 00:24:52;;;;;;;8.95;1.83;;;1.10;92.10;;;;;;5087335;28;20054;-82
2021/04/13 00:27:22;;;;;;;9.23;1.70;;;1.10;92.20;;;;;;5088229;28;20052;-82
2021/04/13 00:29:48;;;;;;;7.20;1.75;;;1.10;92.30;;;;;;5091602;28;20036;-81
2021/04/13 00:32:14;;;;;;;13.05;1.90;;;1.10;92.40;;;;;;5063308;28;20125;-79
2021/04/13 00:35:10;;;;;;;8.40;2.03;;;1.10;92.50;;;;;;5057446;28;20028;-80
2021/04/13 00:37:35;;;;;;;11.82;2.10;;;1.10;92.40;;;;;;5069426;28;20034;-80
2021/04/13 00:40:20;;;;;;;10.77;1.50;;;1.10;92.40;;;;;;5061428;28;20115;-79
2021/04/13 00:42:48;;;;;;;6.60;1.52;;;1.10;92.50;;;;;;5072288;28;20502;-82
2021/04/13 00:45:18;;;;;;;16.23;1.80;;;1.10;92.40;;;;;;5083896;28;20206;-80
2021/04/13 00:47:47;;;;;;;5.55;1.55;;;1.10;92.50;;;;;;5086631;28;20401;-80
2021/04/13 00:50:36;;;;;;;10.88;1.60;;;1.10;92.40;;;;;;5075024;28;20036;-81
2021/04/13 00:53:05;;;;;;;14.40;1.80;;;1.10;92.50;;;;;;5090152;28;20051;-82
2021/04/13 00:55:36;;;;;;;9.77;1.75;;;1.10;92.50;;;;;;5096932;28;20040;-82
2021/04/13 00:58:08;;;;;;;8.45;1.88;;;1.20;92.80;;;;;;5093424;28;20079;-80
2021/04/13 01:00:40;;;;;;;15.77;2.05;;;1.00;92.50;;;;;;5091314;28;20425;-81
2021/04/13 01:03:06;;;;;;;7.67;1.73;;;1.00;92.60;;;;;;5084891;28;20433;-80
2021/04/13 01:05:45;;;;;;;10.43;1.63;;;1.00;92.60;;;;;;5092940;28;20316;-82
2021/04/13 01:08:40;;;;;;;14.00;1.83;;;1.00;92.60;;;;;;5083086;28;20611;-82
2021/04/13 01:11:22;;;;;;;7.57;1.52;;;1.00;92.70;;;;;;5077072;28;20131;-80
2021/04/13 01:13:49;;;;;;;12.43;1.77;;;1.00;92.70;;;;;;5086419;28;20116;-82
2021/04/13 01:16:20;;;;;;;19.05;2.25;;;0.90;92.80;;;;;;5093391;28;20551;-80
2021/04/13 01:18:54;;;;;;;14.55;1.80;;;1.00;92.80;;;;;;5088694;28;20056;-82
2021/04/13 01:21:41;;;;;;;9.32;1.75;;;1.00;92.80;;;;;;5088906;28;20066;-80
2021/04/13 01:24:20;;;;;;;11.98;2.20;;;1.00;93.00;;;;;;5082519;28;20037;-80
2021/04/13 01:26:49;;;;;;;11.13;1.83;;;1.00;92.80;;;;;;5079621;28;20070;-81
2021/04/13 01:29:18;;;;;;;7.43;2.05;;;1.00;92.70;;;;;;5073982;28;20642;-81
2021/04/13 01:31:50;;;;;;;7.78;1.75;;;1.00;92.60;;;;;;5078977;28;20067;-81
2021/04/13 01:34:22;;;;;;;;;;;1.00;92.70;;;;;;5089673;28;20028;-81
2021/04/13 01:37:05;;;;;;;7.80;1.70;;;1.00;93.10;;;;;;5072069;28;19916;-80
2021/04/13 01:39:40;;;;;;;7.72;1.60;;;0.90;93.00;;;;;;5068808;28;20121;-81
2021/04/13 01:42:07;;;;;;;8.98;1.58;;;0.90;92.90;;;;;;5066347;28;20441;-81
2021/04/13 01:44:48;;;;;;;11.32;1.42;;;0.90;92.80;;;;;;5065913;28;20046;-80
2021/04/13 01:47:18;;;;;;;11.48;2.20;;;0.90;92.80;;;;;;5065374;28;20045;-82
2021/04/13 01:49:52;;;;;;;6.47;1.83;;;0.90;92.90;;;;;;5053607;28;20135;-81
2021/04/13 01:52:42;;;;;;;7.18;1.67;;;0.90;93.00;;;;;;5070735;28;20391;-80
2021/04/13 01:55:21;;;;;;;8.52;1.92;;;0.80;93.00;;;;;;5053237;28;20399;-82
2021/04/13 01:58:18;;;;;;;5.28;1.83;;;0.80;93.00;;;;;;5084038;28;20043;-81
2021/04/13 02:00:51;;;;;;;11.02;2.13;;;0.80;93.10;;;;;;5083410;28;20058;-81
2021/04/13 02:03:46;;;;;;;;;;;0.80;93.10;;;;;;5079821;28;20482;-83
2021/04/13 02:06:24;;;;;;;8.30;2.30;;;0.80;93.40;;;;;;5070977;28;19920;-81
2021/04/13 02:08:53;;;;;;;15.25;2.50;;;0.80;93.10;;;;;;5073466;28;20028;-83
2021/04/13 02:11:24;;;;;;;8.90;2.00;;;0.80;93.10;;;;;;5075140;28;20477;-83
2021/04/13 02:14:03;;;;;;;12.60;2.10;;;0.80;93.20;;;;;;5072888;28;20367;-82
2021/04/13 02:16:44;;;;;;;10.93;2.28;;;0.80;93.20;;;;;;5068651;28;20045;-81
2021/04/13 02:19:11;;;;;;;10.65;2.88;;;0.80;93.20;;;;;;5073306;28;20123;-81
2021/04/13 02:21:42;;;;;;;16.10;2.40;;;0.80;93.40;;;;;;5074925;28;20028;-84
2021/04/13 02:24:12;;;;;;;10.05;2.60;;;0.80;93.30;;;;;;5074883;28;20033;-84
2021/04/13 02:26:46;;;;;;;10.77;2.30;;;0.80;93.30;;;;;;5074078;28;20047;-84
2021/04/13 02:29:15;;;;;;;12.85;2.22;;;0.80;93.50;;;;;;5075474;28;20043;-82
2021/04/13 02:31:47;;;;;;;11.50;2.22;;;0.90;93.30;;;;;;5075994;28;20691;-82
2021/04/13 02:34:17;;;;;;;15.93;2.08;;;0.80;93.30;;;;;;5071304;28;20029;-82
2021/04/13 02:36:53;;;;;;;10.82;2.13;;;0.70;93.20;;;;;;5068422;28;20037;-83
2021/04/13 02:39:23;;;;;;;13.18;2.17;;;0.70;93.30;;;;;;5080334;28;20052;-83
2021/04/13 02:41:55;;;;;;;7.32;1.85;;;0.70;93.30;;;;;;5085963;28;20059;-80
2021/04/13 02:44:23;;;;;;;19.50;2.30;;;0.60;93.40;;;;;;5069177;28;20039;-79
2021/04/13 02:46:54;;;;;;;20.33;3.25;;;0.60;93.30;;;;;;5074275;28;20048;-79
2021/04/13 02:49:21;;;;;;;13.80;2.28;;;0.50;93.30;;;;;;5083276;28;20546;-81
2021/04/13 02:52:15;;;;;;;14.32;2.28;;;0.50;93.40;;;;;;5089499;28;20023;-81
2021/04/13 02:54:48;;;;;;;12.05;2.30;;;0.40;93.40;;;;;;5087516;28;20109;-81
2021/04/13 02:57:19;;;;;;;;;;;0.40;93.40;;;;;;5092085;28;20047;-83
2021/04/13 02:59:45;;;;;;;17.38;1.80;;;0.40;93.50;;;;;;5088630;28;19924;-80
2021/04/13 03:02:28;;;;;;;9.38;2.42;;;0.40;93.40;;;;;;5070622;28;20067;-80
2021/04/13 03:04:55;;;;;;;9.73;2.20;;;0.40;93.50;;;;;;5083298;28;20042;-80
2021/04/13 03:07:26;;;;;;;10.40;2.13;;;0.40;93.50;;;;;;5059074;28;20048;-81
2021/04/13 03:10:03;;;;;;;8.43;2.00;;;0.30;93.40;;;;;;5076898;28;20452;-82
2021/04/13 03:12:33;;;;;;;12.15;2.20;;;0.30;93.50;;;;;;5081138;28;20467;-81
2021/04/13 03:14:59;;;;;;;9.95;2.17;;;0.30;93.50;;;;;;5074246;28;21918;-82
2021/04/13 03:17:31;;;;;;;15.68;2.75;;;0.30;93.60;;;;;;5068152;28;20071;-81
2021/04/13 03:20:21;;;;;;;17.77;2.70;;;0.40;93.70;;;;;;5069794;28;20350;-81
2021/04/13 03:22:49;;;;;;;12.57;2.63;;;0.40;93.80;;;;;;5068222;28;20297;-81
2021/04/13 03:25:16;;;;;;;12.88;2.22;;;0.40;93.80;;;;;;5069610;28;20432;-81
2021/04/13 03:27:42;;;;;;;17.77;2.47;;;0.40;93.80;;;;;;5039868;28;20044;-81
2021/04/13 03:30:18;;;;;;;13.98;2.90;;;0.40;93.90;;;;;;5071443;28;20043;-80
2021/04/13 03:32:53;;;;;;;16.20;2.58;;;0.40;93.80;;;;;;5076713;28;20028;-81
2021/04/13 03:35:25;;;;;;;7.05;1.80;;;0.40;93.70;;;;;;5068263;28;20039;-80
2021/04/13 03:37:55;;;;;;;7.40;2.28;;;0.40;93.70;;;;;;5077265;28;20035;-81
2021/04/13 03:40:24;;;;;;;12.30;2.20;;;0.40;93.70;;;;;;5069511;28;21425;-80
2021/04/13 03:43:08;;;;;;;10.20;2.50;;;0.30;93.70;;;;;;5064903;28;20075;-82
2021/04/13 03:45:36;;;;;;;17.80;2.40;;;0.30;93.70;;;;;;5079532;28;20032;-79
2021/04/13 03:48:09;;;;;;;10.25;1.98;;;0.30;93.70;;;;;;5072659;28;20048;-79
2021/04/13 03:50:39;;;;;;;20.25;2.20;;;0.20;93.60;;;;;;5064979;28;20558;-80
2021/04/13 03:53:16;;;;;;;14.95;2.05;;;0.20;93.70;;;;;;5063206;28;20097;-80
2021/04/13 03:56:03;;;;;;;14.27;1.65;;;0.30;93.80;;;;;;5063652;28;20028;-80
2021/04/13 03:58:41;;;;;;;9.43;2.05;;;0.20;93.80;;;;;;5061637;28;20086;-81
2021/04/13 04:01:09;;;;;;;14.20;2.40;;;0.10;93.80;;;;;;5069128;28;20537;-81
2021/04/13 04:03:39;;;;;;;11.65;2.10;;;0.10;93.80;;;;;;5080650;28;20028;-81
2021/04/13 04:06:05;;;;;;;16.67;2.40;;;0.10;93.90;;;;;;5054049;28;20035;-81
2021/04/13 04:08:35;;;;;;;13.65;2.90;;;0.20;93.90;;;;;;5039737;28;20048;-81
2021/04/13 04:11:01;;;;;;;17.02;2.13;;;0.20;94.00;;;;;;5066697;28;20123;-81
2021/04/13 04:13:32;;;;;;;15.15;2.40;;;0.20;94.00;;;;;;5062680;28;20031;-82
2021/04/13 04:16:30;;;;;;;23.38;2.38;;;0.20;93.90;;;;;;5065637;28;20562;-82
2021/04/13 04:19:09;;;;;;;19.67;2.30;;;0.20;94.00;;;;;;5062751;28;20111;-81
2021/04/13 04:21:38;;;;;;;17.67;2.28;;;0.40;94.30;;;;;;5071716;28;20066;-82
2021/04/13 04:24:06;;;;;;;20.35;2.72;;;0.70;94.50;;;;;;5065082;28;20438;-81
2021/04/13 04:26:40;;;;;;;14.23;1.85;;;0.90;94.30;;;;;;5066391;28;20044;-82
2021/04/13 04:29:19;;;;;;;11.20;2.10;;;1.00;94.10;;;;;;5070159;28;20025;-81
2021/04/13 04:31:48;;;;;;;12.15;1.88;;;1.00;94.00;;;;;;5078746;28;20035;-83
2021/04/13 04:34:14;;;;;;;13.68;1.80;;;1.10;93.90;;;;;;5073213;28;20032;-82
2021/04/13 04:36:51;;;;;;;11.13;1.50;;;1.20;93.80;;;;;;5069434;28;20486;-82
2021/04/13 04:39:27;;;;;;;11.90;1.50;;;1.20;93.80;;;;;;5068950;28;20091;-82
2021/04/13 04:42:00;;;;;;;9.70;1.70;;;1.30;93.90;;;;;;5071362;28;20032;-81
2021/04/13 04:44:30;;;;;;;16.00;1.70;;;1.30;93.80;;;;;;5073351;28;20036;-83
2021/04/13 04:47:00;;;;;;;9.85;1.92;;;1.30;93.70;;;;;;5075106;28;20047;-82
2021/04/13 04:49:39;;;;;;;12.65;1.95;;;1.20;93.70;;;;;;5063801;28;20040;-82
2021/04/13 04:52:05;;;;;;;16.58;2.03;;;1.20;93.70;;;;;;5061078;28;20089;-83
2021/04/13 04:54:31;;;;;;;17.98;2.33;;;1.10;93.70;;;;;;5083093;28;20047;-82
2021/04/13 04:56:57;;;;;;;9.45;1.90;;;1.10;93.70;;;;;;5066570;28;20040;-81
2021/04/13 04:59:23;;;;;;;21.65;2.47;;;1.00;93.70;;;;;;5058616;28;20467;-82
2021/04/13 05:01:49;;;;;;;16.67;2.65;;;1.00;93.70;;;;;;5049106;28;20478;-83
2021/04/13 05:04:17;;;;;;;18.33;2.10;;;0.90;93.80;;;;;;5060481;28;20058;-83
2021/04/13 05:06:43;;;;;;;15.60;1.80;;;0.90;93.80;;;;;;5055504;28;20044;-82
2021/04/13 05:09:09;;;;;;;17.15;2.83;;;0.90;93.90;;;;;;5077047;28;20031;-82
2021/04/13 05:11:35;;;;;;;13.05;2.40;;;0.90;93.90;;;;;;5042683;28;20289;-83
2021/04/13 05:14:01;;;;;;;22.90;2.70;;;0.90;93.90;;;;;;5073211;28;20036;-83
2021/04/13 05:16:27;;;;;;;15.48;2.13;;;0.80;93.90;;;;;;5070567;28;20096;-82
2021/04/13 05:18:53;;;;;;;14.43;2.97;;;0.80;94.00;;;;;;5053999;28;20526;-83
2021/04/13 05:21:19;;;;;;;14.38;3.15;;;0.80;94.00;;;;;;5057444;28;20025;-81
2021/04/13 05:23:45;;;;;;;24.40;3.35;;;0.90;94.00;;;;;;5076726;28;20698;-81
2021/04/13 05:26:13;;;;;;;23.55;2.88;;;0.90;94.10;;;;;;5054560;28;20035;-81
2021/04/13 05:28:39;;;;;;;16.30;2.53;;;0.80;94.10;;;;;;5059375;28;20092;-82
2021/04/13 05:31:05;;;;;;;13.30;2.60;;;0.90;94.10;;;;;;5031780;28;20181;-83
2021/04/13 05:33:31;;;;;;;16.00;2.85;;;0.90;94.10;;;;;;5061790;28;20036;-82
2021/04/13 05:35:59;;;;;;;17.75;3.03;;;0.90;94.10;;;;;;5043398;28;20395;-82
2021/04/13 05:38:34;;;;;;;16.65;2.30;;;1.00;94.20;;;;;;5070293;28;20071;-82
2021/04/13 05:41:02;;;;;;;16.23;2.20;;;1.00;94.20;;;;;;5077294;28;20035;-81
2021/04/13 05:43:29;;;;;;;13.35;2.45;;;1.00;94.20;;;;;;5079035;28;20036;-82
2021/04/13 05:45:58;;;;;;;20.88;2.55;;;1.10;94.30;;;;;;5053881;28;20226;-81
2021/04/13 05:48:25;;;;;;;12.68;2.78;;;1.10;94.20;;;;;;5079341;28;20036;-82
2021/04/13 05:50:52;;;;;;;14.48;2.15;;;1.10;94.20;;;;;;5071155;28;20040;-83
2021/04/13 05:53:18;;;;;;;19.90;2.70;;;1.20;94.30;;;;;;5079764;28;20040;-83
2021/04/13 05:55:44;;;;;;;20.40;3.45;;;1.20;94.20;;;;;;5070652;28;20077;-82
2021/04/13 05:58:14;;;;;;;11.23;2.65;;;1.30;94.20;;;;;;5074528;28;20067;-82
2021/04/13 06:00:40;;;;;;;16.02;3.00;;;1.30;94.20;;;;;;5072967;28;20139;-82
2021/04/13 06:03:07;;;;;;;32.03;3.22;;;1.40;94.20;;;;;;5049748;28;20442;-82
2021/04/13 06:05:33;;;;;;;15.50;2.55;;;1.40;94.20;;;;;;5074470;28;20040;-82
2021/04/13 06:07:59;;;;;;;17.13;3.17;;;1.50;94.30;;;;;;5074435;28;20244;-81
2021/04/13 06:10:27;;;;;;;13.30;2.63;;;1.60;94.30;;;;;;5071787;28;20017;-80
2021/04/13 06:12:55;;;;;;;13.52;2.20;;;1.70;94.30;;;;;;5051835;28;20033;-82
2021/04/13 06:15:23;;;;;;;20.45;2.88;;;1.80;94.30;;;;;;5070004;28;20083;-82
2021/04/13 06:17:50;;;;;;;27.15;3.05;;;1.90;94.30;;;;;;5066555;28;20039;-83
2021/04/13 06:20:17;;;;;;;20.23;2.60;;;1.90;94.20;;;;;;5050202;28;20044;-82
2021/04/13 06:22:44;;;;;;;15.50;2.15;;;2.00;94.20;;;;;;5080377;28;20163;-82
2021/04/13 06:25:11;;;;;;;15.13;2.25;;;2.20;94.30;;;;;;5072117;28;20114;-82
2021/04/13 06:27:38;;;;;;;22.00;2.28;;;2.30;94.10;;;;;;5050766;28;20036;-82
2021/04/13 06:30:05;;;;;;;14.38;2.20;;;2.50;94.10;;;;;;5052159;28;20047;-81
2021/04/13 06:32:31;;;;;;;11.68;2.03;;;2.60;94.00;;;;;;5051744;28;20039;-82
2021/04/13 06:34:57;;;;;;;16.25;2.45;;;2.80;93.90;;;;;;5056517;28;20228;-81
2021/04/13 06:37:24;;;;;;;19.85;2.67;;;2.90;93.80;;;;;;5049396;28;20071;-81
2021/04/13 06:39:50;;;;;;;19.83;2.17;;;3.10;93.70;;;;;;5034382;28;20499;-82
2021/04/13 06:42:51;;;;;;;13.95;2.33;;;3.20;93.50;;;;;;5062527;28;20043;-82
2021/04/13 06:45:34;;;;;;;13.75;1.90;;;3.30;93.40;;;;;;5043391;28;20459;-83
2021/04/13 06:48:23;;;;;;;21.73;2.45;;;3.50;93.30;;;;;;5072260;28;20029;-82
2021/04/13 06:51:06;;;;;;;12.73;1.92;;;3.60;93.20;;;;;;5069130;28;20063;-81
2021/04/13 06:53:45;;;;;;;16.35;1.63;;;3.80;93.00;;;;;;5079760;28;20053;-82
2021/04/13 06:56:30;;;;;;;16.65;1.73;;;3.90;92.90;;;;;;5084412;28;20032;-84
2021/04/13 06:59:14;;;;;;;14.57;1.88;;;4.00;92.70;;;;;;5067055;28;20059;-82
2021/04/13 07:01:51;;;;;;;12.18;2.42;;;4.10;92.50;;;;;;5083859;28;20161;-84
2021/04/13 07:04:39;;;;;;;16.55;2.05;;;4.20;92.40;;;;;;5078872;28;20055;-84
2021/04/13 07:07:14;;;;;;;13.63;1.77;;;4.30;92.30;;;;;;5065328;28;20032;-84
2021/04/13 07:09:47;;;;;;;9.55;1.55;;;4.40;92.20;;;;;;5065361;28;20036;-82
2021/04/13 07:12:42;;;;;;;8.85;2.10;;;4.50;92.00;;;;;;5069763;28;20040;-83
2021/04/13 07:15:18;;;;;;;21.98;2.13;;;4.60;91.80;;;;;;5053032;28;20240;-83
2021/04/13 07:18:06;;;;;;;14.30;2.30;;;4.80;91.80;;;;;;5063509;28;20047;-81
2021/04/13 07:20:49;;;;;;;12.60;1.55;;;4.90;91.60;;;;;;5065544;28;20028;-83
2021/04/13 07:23:30;;;;;;;7.55;1.58;;;4.90;91.20;;;;;;5078085;28;20032;-83
2021/04/13 07:26:22;;;;;;;9.82;1.30;;;5.10;91.20;;;;;;5068888;28;20036;-83
2021/04/13 07:28:59;;;;;;;13.90;2.03;;;5.20;90.80;;;;;;5064879;28;20138;-83
2021/04/13 07:31:39;;;;;;;10.63;1.65;;;5.30;90.80;;;;;;5080353;28;20068;-83
2021/04/13 07:34:05;;;;;;;13.20;2.47;;;5.40;90.30;;;;;;5066950;28;20066;-83
2021/04/13 07:36:40;;;;;;;11.23;1.75;;;5.50;90.40;;;;;;5050150;28;20044;-81
2021/04/13 07:39:07;;;;;;;16.38;2.13;;;5.60;90.10;;;;;;5068669;28;20039;-83
2021/04/13 07:41:44;;;;;;;8.32;1.10;;;5.70;90.20;;;;;;5078373;28;20479;-83
2021/04/13 07:44:21;;;;;;;12.70;1.92;;;5.80;88.50;;;;;;5071568;28;20321;-83
2021/04/13 07:47:09;;;;;;;9.93;1.33;;;5.90;88.00;;;;;;5080847;28;20039;-83
2021/04/13 07:49:49;;;;;;;13.52;1.88;;;5.90;88.30;;;;;;5069479;28;20040;-84
2021/04/13 07:52:42;;;;;;;12.20;1.77;;;6.10;87.10;;;;;;5074560;28;20059;-82
2021/04/13 07:55:08;;;;;;;;;;;6.10;86.40;;;;;;5082407;28;20513;-82
2021/04/13 07:57:56;;;;;;;13.85;1.60;;;6.20;86.30;;;;;;5081295;28;19916;-83
2021/04/13 08:00:43;;;;;;;7.45;1.40;;;6.30;86.80;;;;;;5085895;28;20468;-81
2021/04/13 08:03:32;;;;;;;15.20;1.95;;;6.30;86.50;;;;;;5066647;28;20055;-81
2021/04/13 08:06:00;;;;;;;14.07;1.52;;;6.40;85.80;;;;;;5067986;28;20040;-82
2021/04/13 08:08:38;;;;;;;18.45;2.05;;;6.30;85.20;;;;;;5067170;28;20032;-80
2021/04/13 08:11:21;;;;;;;9.82;1.33;;;6.30;84.90;;;;;;5069170;28;20493;-82
2021/04/13 08:13:52;;;;;;;10.73;1.60;;;6.40;85.30;;;;;;5074627;28;20028;-82
2021/04/13 08:16:39;;;;;;;11.32;1.90;;;6.50;84.80;;;;;;5076545;28;20058;-81
2021/04/13 08:19:19;;;;;;;12.52;2.85;;;6.60;83.10;;;;;;5066640;28;20035;-82
2021/04/13 08:22:02;;;;;;;10.18;1.30;;;6.80;83.30;;;;;;5067266;28;20145;-81
2021/04/13 08:24:44;;;;;;;11.00;1.45;;;6.90;83.40;;;;;;5071923;28;20510;-83
2021/04/13 08:27:31;;;;;;;15.23;1.77;;;7.10;83.00;;;;;;5072124;28;20739;-81
2021/04/13 08:30:03;;;;;;;6.53;1.50;;;7.20;80.50;;;;;;5068305;28;20064;-81
2021/04/13 08:32:50;;;;;;;16.58;1.50;;;7.30;79.60;;;;;;5085556;28;20128;-82
2021/04/13 08:35:36;;;;;;;7.28;1.40;;;7.40;79.20;;;;;;5073044;28;20216;-82
2021/04/13 08:38:26;;;;;;;12.73;1.20;;;7.50;78.70;;;;;;5075715;28;20042;-84
2021/04/13 08:41:11;;;;;;;9.73;1.40;;;7.70;78.70;;;;;;5083921;28;20111;-82
2021/04/13 08:44:12;;;;;;;9.85;1.40;;;7.90;76.60;;;;;;5083705;28;20035;-81
2021/04/13 08:47:04;;;;;;;9.80;1.50;;;8.00;76.70;;;;;;5080355;28;20047;-84
2021/04/13 08:49:53;;;;;;;6.88;1.30;;;7.80;75.30;;;;;;5070002;28;20063;-82
2021/04/13 08:52:44;;;;;;;8.45;1.30;;;7.50;77.10;;;;;;5080988;28;20036;-83
2021/04/13 08:55:14;;;;;;;9.30;1.60;;;7.10;77.00;;;;;;5074895;28;20554;-82
2021/04/13 08:57:46;;;;;;;9.63;1.05;;;6.70;78.90;;;;;;5066300;28;20036;-82
2021/04/13 09:00:32;;;;;;;6.88;1.42;;;6.30;80.00;;;;;;5066628;28;20494;-81
2021/04/13 09:03:00;;;;;;;8.30;1.15;;;6.10;81.80;;;;;;5075590;28;20108;-80
2021/04/13 09:05:29;;;;;;;15.90;1.52;;;6.10;82.70;;;;;;5051306;28;20045;-81
2021/04/13 09:08:07;;;;;;;10.73;1.55;;;6.30;82.90;;;;;;5066679;28;20028;-81
2021/04/13 09:10:39;;;;;;;11.65;1.58;;;6.40;82.00;;;;;;5071632;28;20036;-81
2021/04/13 09:13:22;;;;;;;8.77;1.30;;;6.60;81.40;;;;;;5070077;28;20091;-82
2021/04/13 09:16:06;;;;;;;5.80;1.42;;;6.90;80.20;;;;;;5070561;28;20052;-82
2021/04/13 09:18:44;;;;;;;8.27;0.73;;;7.10;78.00;;;;;;5078648;28;20055;-82
2021/04/13 09:21:30;;;;;;;9.35;1.17;;;7.40;77.80;;;;;;5073368;28;20033;-82
2021/04/13 09:24:19;;;;;;;8.95;1.20;;;7.60;77.70;;;;;;5077053;28;20092;-83
2021/04/13 09:27:13;;;;;;;7.20;1.10;;;7.80;75.90;;;;;;5075073;28;20196;-82
2021/04/13 09:29:50;;;;;;;7.55;1.13;;;7.90;76.50;;;;;;5066431;28;20044;-83
2021/04/13 09:32:25;;;;;;;6.97;1.13;;;7.90;76.20;;;;;;5076306;28;20025;-83
2021/04/13 09:35:06;;;;;;;3.90;0.95;;;7.90;75.40;;;;;;5058218;28;20048;-82
2021/04/13 09:37:54;;;;;;;7.45;1.23;;;7.80;75.40;;;;;;5050328;28;20179;-82
2021/04/13 09:40:37;;;;;;;4.65;0.85;;;7.50;76.20;;;;;;5076625;28;20212;-84
2021/04/13 09:43:34;;;;;;;4.50;0.82;;;7.10;77.90;;;;;;5068499;28;20047;-84
2021/04/13 09:46:41;;;;;;;5.82;1.27;;;6.90;79.30;;;;;;5065354;28;20453;-82
2021/04/13 09:49:36;;;;;;;9.57;0.80;;;6.80;80.50;;;;;;5051614;28;20520;-83
2021/04/13 09:52:34;;;;;;;6.43;1.15;;;7.00;80.00;;;;;;5065374;28;20044;-83
2021/04/13 09:55:04;;;;;;;6.72;1.17;;;7.20;80.30;;;;;;5078011;28;20093;-83
2021/04/13 09:57:53;;;;;;;5.78;1.13;;;7.50;80.40;;;;;;5081564;28;20127;-84
2021/04/13 10:00:54;;;;;;;7.40;1.02;;;7.80;77.90;;;;;;5089123;28;20074;-84
2021/04/13 10:03:54;;;;;;;7.95;1.17;;;8.10;73.60;;;;;;5082364;28;20036;-84
2021/04/13 10:06:27;;;;;;;8.35;0.95;;;8.30;72.50;;;;;;5070920;28;20060;-82
2021/04/13 10:09:19;;;;;;;7.80;1.13;;;8.50;73.40;;;;;;5064848;28;20060;-83
2021/04/13 10:12:19;;;;;;;8.15;1.02;;;8.50;71.20;;;;;;5076357;28;20112;-83
2021/04/13 10:14:53;;;;;;;7.47;1.02;;;8.50;71.10;;;;;;5082590;28;20040;-82
2021/04/13 10:17:47;;;;;;;8.40;1.30;;;8.40;71.70;;;;;;5084619;28;20035;-83
2021/04/13 10:20:31;;;;;;;6.40;1.15;;;8.40;69.30;;;;;;5077830;28;20514;-82
2021/04/13 10:23:17;;;;;;;7.65;1.10;;;8.30;67.40;;;;;;5066331;28;20089;-81
2021/04/13 10:25:48;;;;;;;8.57;0.98;;;8.30;68.30;;;;;;5069525;28;20406;-81
2021/04/13 10:29:02;;;;;;;11.93;1.33;;;8.30;69.30;;;;;;5070995;28;20139;-81
2021/04/13 10:31:46;;;;;;;5.65;1.23;;;8.40;68.60;;;;;;5063812;28;20051;-80
2021/04/13 10:34:33;;;;;;;6.13;1.08;;;8.60;70.90;;;;;;5077184;28;20029;-82
2021/04/13 10:37:28;;;;;;;6.35;1.25;;;8.70;70.40;;;;;;5074816;28;20048;-80
2021/04/13 10:40:12;;;;;;;5.57;1.50;;;8.60;69.70;;;;;;5069632;28;20032;-82
2021/04/13 10:42:44;;;;;;;10.85;1.70;;;8.40;70.90;;;;;;5075713;28;20028;-81
2021/04/13 10:45:41;;;;;;;7.43;1.73;;;8.20;71.70;;;;;;5071590;28;20054;-82
2021/04/13 10:48:39;;;;;;;13.38;2.00;;;7.90;72.80;;;;;;5082902;28;20040;-82
2021/04/13 10:51:47;;;;;;;8.45;1.33;;;7.70;74.10;;;;;;5079500;28;20023;-80
2021/04/13 10:54:50;;;;;;;8.93;1.50;;;7.60;75.00;;;;;;5082701;28;20327;-82
2021/04/13 10:57:40;;;;;;;6.20;1.20;;;7.70;75.80;;;;;;5075525;28;20040;-82
2021/04/13 11:00:25;;;;;;;6.97;1.17;;;8.00;75.80;;;;;;5084202;28;20042;-81
2021/04/13 11:02:57;;;;;;;4.88;1.15;;;8.40;72.30;;;;;;5072885;28;20466;-81
2021/04/13 11:05:49;;;;;;;7.53;1.10;;;8.70;70.70;;;;;;5081421;28;20660;-83
2021/04/13 11:08:30;;;;;;;5.65;1.08;;;8.90;69.40;;;;;;5082210;28;20431;-82
2021/04/13 11:11:23;;;;;;;4.20;1.02;;;9.10;69.90;;;;;;5088398;28;20036;-83
2021/04/13 11:14:12;;;;;;;4.57;0.90;;;9.20;66.70;;;;;;5085675;28;20024;-82
2021/04/13 11:16:57;;;;;;;5.15;1.08;;;9.20;65.90;;;;;;5092075;28;20044;-82
2021/04/13 11:19:37;;;;;;;6.85;0.90;;;9.30;65.50;;;;;;5073172;28;20036;-82
2021/04/13 11:22:45;;;;;;;9.48;1.40;;;9.60;65.00;;;;;;5072173;28;20036;-82
2021/04/13 11:25:32;;;;;;;4.20;0.80;;;10.00;65.00;;;;;;5077766;28;20041;-82
2021/04/13 11:28:43;;;;;;;3.53;0.70;;;10.30;64.40;;;;;;5069806;28;20044;-83
2021/04/13 11:31:36;;;;;;;7.45;1.05;;;10.00;63.80;;;;;;5081637;28;20036;-83
2021/04/13 11:34:10;;;;;;;8.80;1.05;;;9.90;66.30;;;;;;5080838;28;20048;-82
2021/04/13 11:37:06;;;;;;;3.90;0.90;;;10.00;69.20;;;;;;5081448;28;20094;-83
2021/04/13 11:39:39;;;;;;;5.03;1.02;;;10.20;70.40;;;;;;5083266;28;20036;-83
2021/04/13 11:42:30;;;;;;;5.50;1.20;;;10.40;71.00;;;;;;5083320;28;20036;-83
2021/04/13 11:45:17;;;;;;;7.05;1.00;;;10.50;68.10;;;;;;5074613;28;20036;-82
2021/04/13 11:48:00;;;;;;;6.60;1.10;;;10.30;65.70;;;;;;5079297;28;20102;-82
2021/04/13 11:50:37;;;;;;;;;;;10.00;65.20;;;;;;5054661;28;20447;-82
2021/04/13 11:53:08;;;;;;;7.47;0.85;;;9.70;61.80;;;;;;5067085;28;19920;-82
2021/04/13 11:55:39;;;;;;;7.90;0.80;;;9.30;63.40;;;;;;5076035;28;20037;-82
2021/04/13 11:58:26;;;;;;;7.25;0.73;;;9.00;63.20;;;;;;5075490;28;20487;-83
2021/04/13 12:01:16;;;;;;;5.95;0.88;;;8.70;62.60;;;;;;5072102;28;20036;-83
2021/04/13 12:03:58;;;;;;;3.00;0.90;;;8.40;62.00;;;;;;5067495;28;20040;-82
2021/04/13 12:06:58;;;;;;;7.25;0.93;;;8.20;62.90;;;;;;5080177;28;20734;-82
2021/04/13 12:09:59;;;;;;;5.50;0.93;;;8.10;62.90;;;;;;5083530;28;20525;-82
2021/04/13 12:12:31;;;;;;;6.43;1.02;;;8.20;64.40;;;;;;5082996;28;20032;-83
2021/04/13 12:15:03;;;;;;;4.88;0.80;;;8.60;65.80;;;;;;5076628;28;20032;-83
2021/04/13 12:17:50;;;;;;;5.43;1.23;;;9.10;65.50;;;;;;5078492;28;20110;-81
2021/04/13 12:20:32;;;;;;;5.25;0.80;;;9.70;66.00;;;;;;5075238;28;20433;-81
2021/04/13 12:23:04;;;;;;;4.07;1.00;;;10.10;64.50;;;;;;5071163;28;20191;-82
2021/04/13 12:25:36;;;;;;;5.20;0.93;;;10.10;64.80;;;;;;5061820;28;20037;-81
2021/04/13 12:28:12;;;;;;;3.22;0.75;;;9.90;61.10;;;;;;5066371;28;20593;-82
2021/04/13 12:30:41;;;;;;;4.53;0.80;;;9.80;62.10;;;;;;5065005;28;20504;-82
2021/04/13 12:33:30;;;;;;;6.45;0.90;;;10.20;62.80;;;;;;5068278;28;20041;-82
2021/04/13 12:35:58;;;;;;;4.80;0.88;;;10.70;62.20;;;;;;5068558;28;20038;-82
2021/04/13 12:38:42;;;;;;;2.97;0.65;;;11.40;62.60;;;;;;5053217;28;20051;-81
2021/04/13 12:41:17;;;;;;;4.13;0.70;;;11.60;58.50;;;;;;5070247;28;20124;-82
2021/04/13 12:43:49;;;;;;;3.63;0.85;;;11.30;57.30;;;;;;5065277;28;20512;-82
2021/04/13 12:46:30;;;;;;;;;;;11.00;56.30;;;;;;5070317;28;20047;-82
2021/04/13 12:49:05;;;;;;;4.35;0.90;;;10.60;48.80;;;;;;5069779;28;19924;-81
2021/04/13 12:51:49;;;;;;;1.38;0.50;;;10.20;54.80;;;;;;5074374;28;20073;-81
2021/04/13 12:54:27;;;;;;;4.10;0.80;;;9.70;52.20;;;;;;5066517;28;20043;-82
2021/04/13 12:57:17;;;;;;;5.15;0.65;;;9.40;54.60;;;;;;5076855;28;20040;-84
2021/04/13 12:59:48;;;;;;;4.68;0.60;;;9.40;54.40;;;;;;5076143;28;20037;-84
2021/04/13 13:02:32;;;;;;;2.20;0.55;;;9.60;54.00;;;;;;5067855;28;20037;-84
2021/04/13 13:04:58;;;;;;;10.43;0.80;;;9.70;53.40;;;;;;5061126;28;20036;-83
2021/04/13 13:07:27;;;;;;;4.10;0.63;;;9.70;53.40;;;;;;5045278;28;20453;-81
2021/04/13 13:09:54;;;;;;;3.20;0.88;;;9.90;54.10;;;;;;5073067;28;20032;-82
2021/04/13 13:12:33;;;;;;;4.40;0.80;;;10.30;55.30;;;;;;5058804;28;20044;-80
2021/04/13 13:15:03;;;;;;;5.68;1.00;;;10.90;55.20;;;;;;5092630;27;20305;-82
2021/04/13 13:17:36;;;;;;;4.93;1.00;;;11.10;54.00;;;;;;5088736;27;20388;-82
2021/04/13 13:20:04;;;;;;;3.80;0.82;;;11.40;54.00;;;;;;5066172;28;20036;-83
2021/04/13 13:22:32;;;;;;;4.00;0.70;;;12.20;54.10;;;;;;5066388;28;20329;-81
2021/04/13 13:25:32;;;;;;;2.13;0.68;;;12.80;53.10;;;;;;5054858;28;20047;-82
2021/04/13 13:28:05;;;;;;;3.40;0.80;;;12.30;49.40;;;;;;5058381;28;20079;-82
2021/04/13 13:30:31;;;;;;;8.98;0.90;;;11.60;50.50;;;;;;5072077;28;20483;-80
2021/04/13 13:32:58;;;;;;;7.05;0.98;;;11.30;52.20;;;;;;5061515;28;20035;-83
2021/04/13 13:35:25;;;;;;;3.97;0.60;;;11.00;50.90;;;;;;5075992;28;20037;-82
2021/04/13 13:37:58;;;;;;;2.05;0.60;;;11.10;50.70;;;;;;5068474;28;20410;-82
2021/04/13 13:40:38;;;;;;;2.55;0.63;;;11.10;49.60;;;;;;5067809;28;20039;-82
2021/04/13 13:43:07;;;;;;;4.18;0.63;;;10.90;50.40;;;;;;5071694;28;20485;-82
2021/04/13 13:45:40;;;;;;;2.80;0.82;;;10.60;51.20;;;;;;5073243;28;20119;-83